KSNL/SNL METAR and TAF weather

Enter ICAO airport designator
Station Type Date Time Source
KSNL METAR 2022/11/30 16:55 UTC NOAA

KSNL 301655Z AUTO 03006KT 10SM CLR 02/M13 A3047 RMK AO2 T00191129


Station Type Date Time Source
KSNL Decoded METAR 2022/11/30 16:55 UTC NOAA

Shawnee, Shawnee Municipal Airport, OK, United States (KSNL) 35-21-26N 096-56-34W
Nov 30, 2022 - 11:55 AM EST / 2022.11.30 1655 UTC
Wind: from the NNE (030 degrees) at 7 MPH (6 KT):0
Visibility: 10 mile(s):0
Sky conditions: clear
Temperature: 35.4 F (1.9 C)
Dew Point: 8.8 F (-12.9 C)
Relative Humidity: 32%
Pressure (altimeter): 30.47 in. Hg (1031 hPa)
ob: KSNL 301655Z AUTO 03006KT 10SM CLR 02/M13 A3047 RMK AO2 T00191129
cycle: 17

Station Type Date Time Source
KSNL TAF UTC NOAA

Error!

Example: see airport list